Time;durP1;ratioP1;P1;durP2;ratioP2;P2;SDS_P1;SDS_P2;PMS_P1;PMS_P2;Temp;Humidity;BMP_temperature;BMP_pressure;BME280_temperature;BME280_humidity;BME280_pressure;Samples;Min_cycle;Max_cycle;Signal;HPM_P1;HPM_P2
2022/12/12 00:01:52;;;;;;;26.67;15.77;;;;;;;1.13;73.36;100824.19;3616523;39;20404;-64
2022/12/12 00:04:18;;;;;;;27.65;16.05;;;;;;;1.10;74.52;100814.53;3608899;39;20051;-65
2022/12/12 00:06:44;;;;;;;24.05;14.68;;;;;;;1.06;74.46;100819.94;3611894;39;20061;-64
2022/12/12 00:09:10;;;;;;;28.98;16.63;;;;;;;1.01;74.76;100825.31;3611807;39;20119;-64
2022/12/12 00:11:36;;;;;;;25.73;15.45;;;;;;;0.85;74.87;100797.47;3612506;39;20058;-64
2022/12/12 00:14:03;;;;;;;27.35;15.98;;;;;;;0.94;75.16;100821.06;3609896;39;20131;-64
2022/12/12 00:16:29;;;;;;;27.10;15.63;;;;;;;0.92;74.55;100821.13;3612498;39;20069;-65
2022/12/12 00:18:55;;;;;;;26.63;16.50;;;;;;;0.17;74.72;100692.28;3610171;39;20048;-64
2022/12/12 00:21:26;;;;;;;26.13;15.45;;;;;;;0.84;75.33;100814.25;3610482;39;20061;-64
2022/12/12 00:23:53;;;;;;;25.33;15.35;;;;;;;0.81;74.43;100816.97;3609834;39;20054;-65
2022/12/12 00:26:27;;;;;;;27.27;16.50;;;;;;;0.80;75.30;100816.09;3611274;39;20611;-64
2022/12/12 00:28:53;;;;;;;27.15;15.57;;;;;;;0.74;74.60;100813.59;3612962;39;20155;-65
2022/12/12 00:31:19;;;;;;;29.55;16.23;;;;;;;0.61;75.28;100810.34;3610282;39;20396;-64
2022/12/12 00:33:47;;;;;;;28.65;16.50;;;;;;;0.68;74.68;100826.94;3611209;39;20047;-64
2022/12/12 00:36:13;;;;;;;25.77;15.80;;;;;;;0.63;74.90;100820.88;3613412;39;20309;-65
2022/12/12 00:38:39;;;;;;;30.38;17.05;;;;;;;0.61;74.97;100826.19;3614322;39;20366;-65
2022/12/12 00:41:05;;;;;;;27.98;16.15;;;;;;;0.55;74.99;100814.88;3613306;39;20051;-66
2022/12/12 00:43:31;;;;;;;29.25;16.60;;;;;;;0.55;75.78;100826.31;3615623;39;20058;-64
2022/12/12 00:45:59;;;;;;;27.67;16.38;;;;;;;0.39;75.73;100798.47;3609787;39;20067;-65
2022/12/12 00:48:25;;;;;;;27.27;16.13;;;;;;;0.50;76.06;100829.97;3612401;39;20150;-65
2022/12/12 00:50:51;;;;;;;28.02;17.27;;;;;;;0.46;75.63;100837.09;3612395;39;20122;-64
2022/12/12 00:53:17;;;;;;;26.27;16.48;;;;;;;0.40;76.72;100821.34;3610378;39;20050;-64
2022/12/12 00:55:42;;;;;;;27.17;16.08;;;;;;;0.40;76.65;100835.44;3616484;39;20082;-64
2022/12/12 00:58:08;;;;;;;30.20;16.83;;;;;;;0.39;76.65;100830.19;3612982;39;20148;-64
2022/12/12 01:00:34;;;;;;;28.10;16.73;;;;;;;0.35;76.63;100831.13;3612931;39;20054;-64
2022/12/12 01:03:00;;;;;;;26.08;16.05;;;;;;;0.28;75.52;100832.16;3616021;39;20058;-64
2022/12/12 01:05:27;;;;;;;29.83;16.83;;;;;;;0.29;76.71;100833.94;3612429;39;20061;-64
2022/12/12 01:07:53;;;;;;;29.40;16.58;;;;;;;0.26;76.24;100836.63;3611409;39;20054;-64
2022/12/12 01:10:19;;;;;;;27.92;16.83;;;;;;;0.07;76.70;100807.91;3611236;39;20379;-64
2022/12/12 01:12:45;;;;;;;29.20;16.77;;;;;;;0.20;76.50;100841.13;3613970;39;20050;-65
2022/12/12 01:15:11;;;;;;;29.65;17.08;;;;;;;0.19;76.78;100846.41;3612010;39;20078;-64
2022/12/12 01:17:37;;;;;;;29.38;16.92;;;;;;;0.18;76.78;100847.31;3614489;39;20056;-65
2022/12/12 01:20:18;;;;;;;28.52;17.48;;;;;;;0.15;77.31;100850.88;3614103;39;20049;-64
2022/12/12 01:22:45;;;;;;;27.80;16.17;;;;;;;0.15;76.89;100850.88;3610594;39;20066;-65
2022/12/12 01:25:13;;;;;;;29.48;17.17;;;;;;;0.13;76.43;100859.78;3610989;39;20063;-65
2022/12/12 01:27:40;;;;;;;30.90;16.80;;;;;;;0.10;76.48;100860.69;3613389;39;20050;-65
2022/12/12 01:30:09;;;;;;;30.42;16.80;;;;;;;0.09;77.79;100861.56;3615225;39;20071;-64
2022/12/12 01:32:35;;;;;;;28.63;16.15;;;;;;;0.07;77.02;100863.41;3616287;39;20058;-65
2022/12/12 01:35:01;;;;;;;33.95;17.63;;;;;;;0.06;77.61;100869.56;3603879;39;20083;-66
2022/12/12 01:37:26;;;;;;;27.13;16.55;;;;;;;0.01;76.69;100865.28;3608752;39;20546;-64
2022/12/12 01:39:52;;;;;;;24.88;15.35;;;;;;;0.01;77.51;100868.78;3611056;39;20054;-64
2022/12/12 01:42:18;;;;;;;28.35;16.65;;;;;;;-0.04;77.35;100865.34;3613884;39;20055;-64
2022/12/12 01:44:49;;;;;;;26.77;16.25;;;;;;;-0.77;76.56;100748.66;3609579;39;20054;-65
2022/12/12 01:47:19;;;;;;;32.22;17.45;;;;;;;-0.05;76.76;100872.41;3608798;39;20067;-64
2022/12/12 01:49:53;;;;;;;30.92;16.40;;;;;;;-0.07;77.43;100868.03;3612893;39;20259;-64
2022/12/12 01:52:27;;;;;;;32.03;16.90;;;;;;;-0.13;77.04;100870.78;3612387;39;20405;-64
2022/12/12 01:54:58;;;;;;;;;;;;;;;-0.13;77.57;100879.56;3609182;39;20131;-64
2022/12/12 01:57:36;;;;;;;29.05;15.98;;;;;;;-0.16;77.16;100879.66;3612010;39;20289;-64
2022/12/12 02:00:08;;;;;;;25.60;16.13;;;;;;;-0.19;76.73;100879.72;3613115;39;20080;-64
2022/12/12 02:02:36;;;;;;;28.75;16.85;;;;;;;-0.20;77.98;100879.72;3615227;39;20059;-64
2022/12/12 02:05:18;;;;;;;30.60;16.92;;;;;;;-0.22;76.87;100879.75;3613997;39;20136;-64
2022/12/12 02:07:44;;;;;;;30.52;18.08;;;;;;;-0.21;77.01;100880.63;3617434;39;20086;-64
2022/12/12 02:10:10;;;;;;;31.08;17.30;;;;;;;-0.24;77.44;100882.41;3613486;39;20142;-64
2022/12/12 02:12:35;;;;;;;31.00;17.38;;;;;;;-0.25;76.92;100888.59;3609278;39;20053;-63
2022/12/12 02:15:01;;;;;;;29.23;16.75;;;;;;;-0.36;76.99;100866.75;3611468;39;20062;-63
2022/12/12 02:18:15;;;;;;;30.17;17.73;;;;;;;-0.28;77.76;100883.38;3614347;39;20347;-64
2022/12/12 02:21:20;;;;;;;28.80;16.98;;;;;;;-0.33;76.58;100879.91;3570802;40;20067;-64
2022/12/12 02:24:26;;;;;;;28.38;16.88;;;;;;;-0.40;76.72;100880.91;3609960;39;20047;-64
2022/12/12 02:27:13;;;;;;;29.02;16.88;;;;;;;-0.41;76.16;100888.84;3609624;39;20055;-64
2022/12/12 02:30:06;;;;;;;28.73;16.95;;;;;;;-0.46;76.74;100883.66;3611929;39;20061;-64
2022/12/12 02:32:59;;;;;;;28.80;16.40;;;;;;;-0.49;77.56;100894.25;3614502;39;20055;-63
2022/12/12 02:36:10;;;;;;;32.05;16.70;;;;;;;-0.53;77.29;100884.66;3617787;39;20489;-64
2022/12/12 02:38:54;;;;;;;29.13;16.20;;;;;;;-0.53;77.46;100889.94;3611939;39;20050;-64
2022/12/12 02:41:47;;;;;;;31.35;16.08;;;;;;;-0.56;76.61;100893.50;3612069;39;20385;-64
2022/12/12 02:44:53;;;;;;;25.83;15.25;;;;;;;-0.57;76.84;100890.84;3610396;39;20061;-63
2022/12/12 02:47:31;;;;;;;33.03;17.30;;;;;;;-0.61;77.55;100887.41;3610403;39;20094;-64
2022/12/12 02:50:19;;;;;;;28.92;16.48;;;;;;;-0.63;77.29;100896.25;3612669;39;20061;-63
2022/12/12 02:52:47;;;;;;;30.63;16.73;;;;;;;-0.75;76.68;100873.53;3615504;39;20058;-62
2022/12/12 02:55:14;;;;;;;34.25;18.80;;;;;;;-0.68;76.73;100887.53;3611929;39;20090;-63
2022/12/12 02:57:40;;;;;;;30.95;17.90;;;;;;;-0.71;76.71;100894.56;3611972;39;20050;-63
2022/12/12 03:00:09;;;;;;;29.40;16.27;;;;;;;-0.72;76.68;100890.19;3611134;39;20067;-62
2022/12/12 03:09:15;;;;;;;31.33;16.83;;;;;;;-0.82;76.27;100883.31;3612303;39;20061;-63
2022/12/12 03:11:56;;;;;;;28.30;16.50;;;;;;;-0.84;77.39;100885.09;3609992;39;20632;-63
2022/12/12 03:14:57;;;;;;;31.63;17.27;;;;;;;-0.86;77.27;100886.00;3608519;39;20297;-64
2022/12/12 03:17:43;;;;;;;29.65;16.02;;;;;;;-0.88;77.01;100877.25;3608874;39;20061;-64
2022/12/12 03:20:32;;;;;;;28.08;16.80;;;;;;;-0.89;76.91;100886.91;3609829;39;20063;-63
2022/12/12 03:23:12;;;;;;;30.35;17.23;;;;;;;-0.89;76.64;100886.03;3610943;39;20054;-64
2022/12/12 03:26:11;;;;;;;29.27;15.70;;;;;;;-0.90;76.43;100881.69;3615216;39;20512;-64
2022/12/12 03:28:58;;;;;;;31.92;16.08;;;;;;;-0.99;76.18;100872.13;3613309;39;20062;-64
2022/12/12 03:31:33;;;;;;;33.35;16.27;;;;;;;-0.95;77.24;100877.34;3608535;39;20128;-64
2022/12/12 03:34:18;;;;;;;27.77;15.38;;;;;;;-0.94;77.18;100878.22;3605595;39;20053;-64
2022/12/12 03:37:17;;;;;;;27.60;15.77;;;;;;;-0.97;75.95;100870.34;3611094;39;20056;-63
2022/12/12 03:40:06;;;;;;;27.98;15.55;;;;;;;-1.13;76.64;100856.47;3614467;39;20066;-64
2022/12/12 03:43:06;;;;;;;33.05;16.90;;;;;;;-1.03;75.97;100883.59;3613383;39;20092;-63
2022/12/12 03:45:52;;;;;;;29.35;16.05;;;;;;;-1.06;76.08;100888.94;3611203;39;20055;-63
2022/12/12 03:48:37;;;;;;;27.63;15.75;;;;;;;-1.09;77.08;100883.69;3613180;39;20051;-64
2022/12/12 03:51:28;;;;;;;29.42;15.13;;;;;;;-1.11;76.95;100890.72;3609140;39;20065;-63
2022/12/12 03:54:19;;;;;;;29.95;15.85;;;;;;;-1.13;76.34;100888.13;3609105;39;20051;-64
2022/12/12 03:57:07;;;;;;;30.80;16.25;;;;;;;-1.15;75.84;100894.31;3613057;39;20038;-64
2022/12/12 03:59:46;;;;;;;31.35;17.23;;;;;;;-1.15;75.96;100895.19;3612605;39;20061;-64
2022/12/12 04:02:50;;;;;;;28.00;15.35;;;;;;;-1.19;76.85;100891.72;3613435;39;20051;-63
2022/12/12 04:05:31;;;;;;;29.85;16.10;;;;;;;-1.23;76.22;100883.88;3612757;39;20302;-64
2022/12/12 04:08:10;;;;;;;30.88;16.58;;;;;;;-1.22;76.91;100894.38;3609356;39;20055;-63
2022/12/12 04:14:20;;;;;;;30.05;17.10;;;;;;;-1.27;77.54;100895.34;3610910;39;20128;-64
2022/12/12 04:16:59;;;;;;;28.77;15.20;;;;;;;-1.26;76.64;100895.31;3613537;39;20407;-64
2022/12/12 04:29:06;;;;;;;27.80;15.88;;;;;;;-1.37;75.94;100902.47;3616810;39;20118;-64
2022/12/12 04:31:40;;;;;;;31.42;16.50;;;;;;;-1.40;76.72;100910.44;3614573;39;20651;-64
2022/12/12 04:34:36;;;;;;;28.05;15.93;;;;;;;-1.47;75.81;100904.34;3612352;39;20057;-66
2022/12/12 04:37:10;;;;;;;25.17;14.88;;;;;;;-1.43;76.30;100915.72;3611155;39;20110;-64
2022/12/12 04:39:40;;;;;;;;;;;;;;;-1.47;76.50;100924.56;3614738;39;20082;-64
2022/12/12 04:42:13;;;;;;;28.40;15.18;;;;;;;-1.48;75.74;100928.09;3613602;39;19939;-64
2022/12/12 04:44:43;;;;;;;32.55;15.95;;;;;;;-1.50;76.51;100929.88;3615163;39;20403;-63
2022/12/12 04:47:13;;;;;;;30.75;16.80;;;;;;;-1.51;75.91;100930.78;3613902;39;20057;-63
2022/12/12 04:49:45;;;;;;;28.27;14.30;;;;;;;-1.54;76.31;100928.16;3611608;39;20089;-64
2022/12/12 04:52:16;;;;;;;27.67;15.70;;;;;;;-1.75;76.26;100887.09;3610571;39;20063;-63
2022/12/12 04:55:18;;;;;;;30.30;15.10;;;;;;;-1.57;76.23;100926.44;3612101;39;20055;-63
2022/12/12 04:57:49;;;;;;;32.50;15.23;;;;;;;-1.59;75.85;100928.19;3608557;39;20059;-62
2022/12/12 05:00:16;;;;;;;30.40;17.08;;;;;;;-1.64;76.07;100920.34;3608086;39;20094;-63
2022/12/12 05:03:20;;;;;;;29.10;16.67;;;;;;;-1.61;76.59;100931.78;3610585;39;20123;-63
2022/12/12 05:06:16;;;;;;;30.50;15.93;;;;;;;-1.72;75.82;100926.59;3610649;39;20119;-62
2022/12/12 05:08:48;;;;;;;30.30;15.48;;;;;;;-1.72;76.65;100930.09;3607654;39;20059;-64
2022/12/12 05:11:17;;;;;;;30.13;16.42;;;;;;;-1.77;76.56;100921.38;3611216;39;20047;-62
2022/12/12 05:13:43;;;;;;;29.08;15.50;;;;;;;-1.76;76.26;100925.75;3611208;39;20043;-63
2022/12/12 05:16:27;;;;;;;29.25;16.00;;;;;;;-1.88;76.10;100907.41;3610550;39;20428;-63
2022/12/12 05:18:53;;;;;;;30.33;15.52;;;;;;;-1.79;76.31;100923.13;3609782;39;20067;-64
2022/12/12 05:21:19;;;;;;;32.20;16.00;;;;;;;-1.80;75.99;100921.41;3611961;39;20047;-64
2022/12/12 05:23:45;;;;;;;27.23;15.27;;;;;;;-1.87;76.34;100925.88;3617132;39;20046;-63
2022/12/12 05:26:30;;;;;;;27.83;15.55;;;;;;;-1.82;76.19;100932.84;3609979;39;20086;-63
2022/12/12 05:28:56;;;;;;;34.80;16.63;;;;;;;-1.83;76.13;100926.69;3609443;39;20102;-63
2022/12/12 05:31:22;;;;;;;29.20;15.73;;;;;;;-1.84;75.64;100924.94;3612533;39;20111;-64
2022/12/12 05:33:48;;;;;;;28.38;16.00;;;;;;;-1.83;76.02;100928.47;3613332;39;20098;-62
2022/12/12 05:36:15;;;;;;;32.53;16.13;;;;;;;-1.84;76.29;100929.34;3611140;39;20055;-63
2022/12/12 05:38:41;;;;;;;30.73;14.93;;;;;;;-1.85;75.54;100936.38;3606956;39;20055;-63
2022/12/12 05:41:08;;;;;;;31.55;15.88;;;;;;;-1.85;75.33;100933.72;3609576;39;20058;-63
2022/12/12 05:43:35;;;;;;;29.45;14.63;;;;;;;-2.26;76.06;100868.28;3608364;39;20066;-63
2022/12/12 05:46:00;;;;;;;30.30;15.73;;;;;;;-1.91;75.70;100933.78;3606155;39;20043;-63
2022/12/12 05:48:27;;;;;;;28.67;15.82;;;;;;;-1.91;76.48;100939.06;3609430;39;20108;-63
2022/12/12 05:50:53;;;;;;;32.20;16.02;;;;;;;-1.90;76.27;100932.94;3608998;39;20050;-63
2022/12/12 05:53:19;;;;;;;28.58;14.80;;;;;;;-1.89;76.36;100938.16;3613198;39;20055;-64
2022/12/12 05:55:45;;;;;;;30.00;14.55;;;;;;;-1.89;75.88;100937.28;3610518;39;20083;-62
2022/12/12 05:58:11;;;;;;;28.17;15.13;;;;;;;-1.90;76.77;100935.56;3610131;39;20110;-62
2022/12/12 06:00:36;;;;;;;28.98;15.20;;;;;;;-1.88;75.80;100933.75;3608430;39;20065;-64
2022/12/12 06:03:02;;;;;;;27.45;14.90;;;;;;;-1.89;75.92;100943.44;3608267;39;20758;-63
2022/12/12 06:05:28;;;;;;;28.00;13.80;;;;;;;-1.89;75.36;100937.28;3610464;39;20395;-63
2022/12/12 06:07:54;;;;;;;29.50;14.15;;;;;;;-1.91;75.88;100945.19;3610324;39;20055;-63
2022/12/12 06:10:19;;;;;;;28.95;14.98;;;;;;;-1.92;75.89;100950.50;3610328;39;20605;-63
2022/12/12 06:12:45;;;;;;;31.85;16.00;;;;;;;-1.92;75.66;100945.22;3611064;39;20058;-62
2022/12/12 06:15:11;;;;;;;32.22;15.63;;;;;;;-1.92;75.75;100947.84;3612526;39;21330;-62
2022/12/12 06:17:36;;;;;;;30.15;15.07;;;;;;;-1.91;75.27;100950.47;3611508;39;20158;-63
2022/12/12 06:20:03;;;;;;;32.38;17.52;;;;;;;-1.92;76.00;100954.00;3608798;39;20520;-63
2022/12/12 06:22:29;;;;;;;31.23;15.98;;;;;;;-1.91;76.36;100954.88;3608756;39;20049;-66
2022/12/12 06:24:54;;;;;;;34.40;15.48;;;;;;;-1.99;75.29;100944.41;3610308;39;20054;-62
2022/12/12 06:27:20;;;;;;;28.85;14.32;;;;;;;-1.99;75.75;100951.44;3611849;39;20962;-63
2022/12/12 06:29:45;;;;;;;31.60;16.35;;;;;;;-2.02;75.66;100952.34;3613530;39;20092;-63
2022/12/12 06:32:11;;;;;;;31.23;15.43;;;;;;;-1.98;75.20;100955.81;3611531;39;20054;-63
2022/12/12 06:34:38;;;;;;;27.23;14.55;;;;;;;-1.99;75.46;100962.84;3611827;39;20282;-65
2022/12/12 06:37:06;;;;;;;32.25;15.48;;;;;;;-2.03;75.20;100954.97;3609986;39;20068;-65
2022/12/12 06:39:32;;;;;;;33.30;15.80;;;;;;;-2.06;75.29;100950.63;3613433;39;20062;-65
2022/12/12 06:41:58;;;;;;;31.67;15.68;;;;;;;-2.06;75.35;100957.63;3614108;39;20050;-65
2022/12/12 06:44:23;;;;;;;33.47;15.35;;;;;;;-2.06;76.44;100955.88;3609330;39;20051;-66
2022/12/12 06:46:49;;;;;;;32.05;15.18;;;;;;;-2.07;75.95;100959.38;3609761;39;20066;-65
2022/12/12 06:49:15;;;;;;;30.05;14.75;;;;;;;-2.08;75.74;100962.03;3610605;39;20051;-65
2022/12/12 06:51:44;;;;;;;27.23;13.88;;;;;;;-2.09;76.26;100969.09;3610774;39;20058;-65
2022/12/12 06:54:16;;;;;;;34.15;15.18;;;;;;;-2.09;76.01;100961.19;3609878;39;20051;-64
2022/12/12 06:56:43;;;;;;;30.52;15.07;;;;;;;-2.33;75.97;100925.38;3612185;39;20046;-65
2022/12/12 06:59:11;;;;;;;31.35;14.27;;;;;;;-2.10;76.52;100967.31;3611616;39;20378;-65
2022/12/12 07:01:37;;;;;;;30.38;14.52;;;;;;;-2.09;75.69;100966.44;3609704;39;20139;-65
2022/12/12 07:04:03;;;;;;;27.70;13.43;;;;;;;-2.08;75.54;100964.69;3610744;39;20843;-64
2022/12/12 07:06:29;;;;;;;30.20;15.15;;;;;;;-2.08;75.81;100968.19;3610239;39;20437;-63
2022/12/12 07:08:59;;;;;;;29.90;14.25;;;;;;;-2.07;75.17;100969.06;3606438;39;20118;-64
2022/12/12 07:11:26;;;;;;;31.58;15.00;;;;;;;-2.06;75.78;100978.69;3598119;39;20062;-64
2022/12/12 07:13:55;;;;;;;27.13;13.90;;;;;;;-2.47;75.02;100917.56;3606215;39;20098;-64
2022/12/12 07:16:21;;;;;;;29.05;13.52;;;;;;;-2.11;76.18;100979.59;3607807;39;20050;-63
2022/12/12 07:18:47;;;;;;;30.00;14.65;;;;;;;-2.13;76.08;100975.22;3609264;39;20054;-64
2022/12/12 07:21:17;;;;;;;32.08;13.90;;;;;;;-2.10;75.55;100981.34;3611798;39;20400;-64
2022/12/12 07:23:44;;;;;;;31.02;14.07;;;;;;;-2.10;75.66;100988.38;3609344;39;20654;-64
2022/12/12 07:26:14;;;;;;;28.70;13.30;;;;;;;-2.12;75.67;100988.41;3610667;39;20375;-63
2022/12/12 07:28:40;;;;;;;32.63;13.70;;;;;;;-2.69;75.66;100901.06;3606846;39;20085;-64
2022/12/12 07:31:13;;;;;;;29.40;14.05;;;;;;;-2.15;75.46;100985.78;3607454;39;20484;-63
2022/12/12 07:33:40;;;;;;;31.75;13.52;;;;;;;-2.14;75.72;100998.06;3609584;39;20338;-63
2022/12/12 07:36:07;;;;;;;36.33;14.63;;;;;;;-2.16;75.05;100997.22;3609656;39;20062;-64
2022/12/12 07:38:34;;;;;;;31.83;14.60;;;;;;;-2.40;75.43;100952.63;3615083;39;20050;-63
2022/12/12 07:41:06;;;;;;;29.80;14.65;;;;;;;-2.15;75.04;100998.97;3614287;39;20070;-63
2022/12/12 07:43:35;;;;;;;32.85;14.27;;;;;;;-2.13;75.58;101005.06;3612131;39;20063;-64
2022/12/12 07:46:05;;;;;;;26.38;12.70;;;;;;;-2.12;75.47;100998.06;3610045;39;20409;-63
2022/12/12 07:48:31;;;;;;;29.70;13.98;;;;;;;-2.13;75.14;101002.44;3615030;39;20178;-63
2022/12/12 07:50:59;;;;;;;30.08;12.98;;;;;;;-2.11;74.76;101010.34;3614645;39;20464;-63
2022/12/12 07:53:26;;;;;;;33.30;13.77;;;;;;;-2.11;74.99;101012.97;3609503;39;20065;-63
2022/12/12 07:55:52;;;;;;;27.75;14.05;;;;;;;-2.12;74.78;101009.47;3599876;39;20055;-64
2022/12/12 07:58:17;;;;;;;29.50;13.77;;;;;;;-2.12;74.86;101009.47;3610805;39;20085;-63
2022/12/12 08:00:43;;;;;;;30.17;13.57;;;;;;;-2.67;74.41;100924.72;3607937;39;20063;-63
2022/12/12 08:03:09;;;;;;;31.25;15.27;;;;;;;-2.13;75.34;101028.75;3604587;39;20061;-64
2022/12/12 08:05:39;;;;;;;30.20;13.00;;;;;;;-2.17;74.52;101021.78;3609243;39;20401;-64
2022/12/12 08:08:05;;;;;;;30.05;14.10;;;;;;;-2.07;74.59;101027.00;3599842;39;20310;-65
2022/12/12 08:10:31;;;;;;;30.88;14.00;;;;;;;-2.09;74.44;101029.66;3607559;39;20054;-63
2022/12/12 08:12:57;;;;;;;28.05;13.63;;;;;;;-2.05;74.64;101031.38;3608560;39;20055;-64
2022/12/12 08:15:22;;;;;;;29.52;12.98;;;;;;;-2.04;74.95;101029.59;3609919;39;20050;-64
2022/12/12 08:17:48;;;;;;;29.73;13.10;;;;;;;-2.06;74.81;101034.91;3607820;39;20481;-64
2022/12/12 08:20:15;;;;;;;38.45;14.07;;;;;;;-2.04;74.57;101045.41;3609624;39;20407;-64
2022/12/12 08:22:41;;;;;;;28.83;14.07;;;;;;;-2.11;74.99;101027.00;3607181;39;20302;-63
2022/12/12 08:25:07;;;;;;;30.42;14.35;;;;;;;-2.00;74.61;101034.81;3601777;39;20057;-63
2022/12/12 08:27:33;;;;;;;33.08;14.30;;;;;;;-2.17;74.80;101003.34;3609374;39;20082;-63
2022/12/12 08:29:59;;;;;;;31.67;13.23;;;;;;;-1.98;74.72;101040.97;3609480;39;20416;-63
2022/12/12 08:32:24;;;;;;;36.28;15.32;;;;;;;-1.97;75.22;101037.44;3606433;39;20384;-63
2022/12/12 08:34:55;;;;;;;31.08;14.93;;;;;;;-2.01;75.12;101021.69;3607192;39;20066;-63
2022/12/12 08:37:21;;;;;;;30.65;13.88;;;;;;;-1.87;75.21;101041.78;3608715;39;20874;-63
2022/12/12 08:39:46;;;;;;;30.65;14.20;;;;;;;-1.83;75.54;101047.91;3609829;39;20094;-63
2022/12/12 08:42:12;;;;;;;31.05;14.82;;;;;;;-1.81;75.59;101039.97;3611459;39;20055;-63
2022/12/12 08:44:38;;;;;;;30.05;14.10;;;;;;;-1.80;74.67;101039.97;3609109;39;20522;-63
2022/12/12 08:47:04;;;;;;;30.33;13.13;;;;;;;-1.74;74.50;101039.94;3610222;39;20070;-63
2022/12/12 08:49:30;;;;;;;32.58;14.63;;;;;;;-1.66;74.21;101046.00;3609022;39;20127;-63
2022/12/12 08:51:56;;;;;;;30.40;14.00;;;;;;;-1.65;74.80;101046.84;3606216;39;20046;-63
2022/12/12 08:54:22;;;;;;;34.47;14.45;;;;;;;-1.65;74.80;101047.75;3605594;39;20039;-63
2022/12/12 08:56:48;;;;;;;29.27;13.52;;;;;;;-1.54;74.90;101052.94;3608296;39;20047;-63
2022/12/12 08:59:14;;;;;;;31.27;13.77;;;;;;;-1.73;74.43;101006.53;3607912;39;20053;-63
2022/12/12 09:01:40;;;;;;;30.60;13.75;;;;;;;-1.78;74.62;101001.28;3601809;39;20083;-63
2022/12/12 09:04:05;;;;;;;32.95;14.65;;;;;;;-1.67;73.96;101017.03;3606717;39;20156;-63
2022/12/12 09:06:31;;;;;;;34.25;15.38;;;;;;;-1.46;74.11;101048.47;3609166;39;20072;-65
2022/12/12 09:08:57;;;;;;;28.25;13.10;;;;;;;-1.36;74.04;101057.19;3595218;39;20059;-63
2022/12/12 09:11:23;;;;;;;31.10;13.30;;;;;;;-1.30;73.42;101057.13;3608550;39;20046;-63
2022/12/12 09:13:49;;;;;;;31.73;12.63;;;;;;;-1.27;74.02;101059.72;3607620;39;20047;-64
2022/12/12 09:16:15;;;;;;;26.27;11.60;;;;;;;-1.31;73.70;101043.94;3608860;39;20070;-64
2022/12/12 09:18:41;;;;;;;31.83;12.90;;;;;;;-1.17;73.81;101066.66;3600123;39;20050;-63
2022/12/12 09:21:06;;;;;;;32.20;13.82;;;;;;;-1.11;73.46;101065.72;3608818;39;20452;-63
2022/12/12 09:23:33;;;;;;;29.48;12.90;;;;;;;-1.07;72.98;101067.44;3609574;39;20090;-63
2022/12/12 09:26:05;;;;;;;33.08;13.00;;;;;;;-1.03;73.78;101065.63;3608342;39;20043;-63
2022/12/12 09:28:32;;;;;;;26.15;13.13;;;;;;;-1.04;72.71;101055.97;3614691;39;20051;-63
2022/12/12 09:30:57;;;;;;;29.85;12.93;;;;;;;-0.94;72.89;101062.91;3607415;39;20063;-63
2022/12/12 09:33:23;;;;;;;30.42;12.93;;;;;;;-0.99;72.83;101059.44;3610099;39;20409;-63
2022/12/12 09:36:01;;;;;;;29.08;12.50;;;;;;;-0.91;73.04;101052.31;3605792;39;20055;-63
2022/12/12 09:38:27;;;;;;;27.33;11.85;;;;;;;-0.82;71.82;101059.25;3610212;39;20063;-63
2022/12/12 09:41:02;;;;;;;25.80;11.82;;;;;;;-0.79;72.81;101057.47;3608202;39;20047;-63
2022/12/12 09:43:36;;;;;;;26.15;11.77;;;;;;;-0.69;72.18;101060.00;3609141;39;20054;-63
2022/12/12 09:46:14;;;;;;;;;;;;;;;-0.60;72.17;101058.13;3605531;39;20058;-63
2022/12/12 09:48:45;;;;;;;24.90;10.38;;;;;;;-0.55;71.86;101056.28;3601808;39;19934;-63
2022/12/12 09:51:12;;;;;;;26.60;12.02;;;;;;;-0.37;71.37;101060.47;3610552;39;20108;-63
2022/12/12 09:53:44;;;;;;;24.17;11.35;;;;;;;-0.19;71.42;101058.44;3607462;39;20494;-63
2022/12/12 09:56:28;;;;;;;23.98;10.57;;;;;;;0.03;70.74;101049.31;3609446;39;20070;-63
2022/12/12 09:59:18;;;;;;;22.23;11.18;;;;;;;0.18;70.51;101041.16;3609000;39;20300;-63
2022/12/12 10:02:31;;;;;;;22.55;10.77;;;;;;;0.47;68.93;101042.44;3610570;39;20355;-63
2022/12/12 10:05:40;;;;;;;24.33;11.10;;;;;;;0.70;68.06;101044.72;3606800;39;20130;-65
2022/12/12 10:08:25;;;;;;;25.25;10.95;;;;;;;0.95;67.78;101049.53;3607633;39;20051;-63
2022/12/12 10:11:03;;;;;;;27.55;11.32;;;;;;;1.18;66.41;101050.00;3605212;39;20061;-64
2022/12/12 10:13:33;;;;;;;23.30;11.07;;;;;;;1.43;66.46;101049.47;3606863;39;20129;-63
2022/12/12 10:16:09;;;;;;;20.50;10.93;;;;;;;1.65;65.25;101044.59;3609954;39;20058;-63
2022/12/12 10:18:47;;;;;;;23.55;11.27;;;;;;;1.76;64.87;101047.91;3606193;39;20382;-64
2022/12/12 10:21:31;;;;;;;22.65;10.18;;;;;;;1.99;64.45;101037.66;3613184;39;20054;-63
2022/12/12 10:24:11;;;;;;;23.83;12.15;;;;;;;2.12;62.88;101040.88;3613105;39;20049;-63
2022/12/12 10:26:41;;;;;;;23.33;11.10;;;;;;;2.28;62.69;101049.34;3608210;39;20076;-62
2022/12/12 10:29:19;;;;;;;23.08;10.70;;;;;;;2.39;62.60;101042.00;3615408;39;20062;-63
2022/12/12 10:31:51;;;;;;;63.20;32.95;;;;;;;2.53;61.72;101053.13;3611065;39;20059;-64
2022/12/12 10:34:54;;;;;;;42.95;20.13;;;;;;;2.78;61.64;101042.78;3613010;39;20381;-64
2022/12/12 10:38:11;;;;;;;20.88;10.88;;;;;;;3.03;60.52;101042.97;3608974;39;20055;-63
2022/12/12 10:41:12;;;;;;;20.48;10.43;;;;;;;3.10;60.59;101037.50;3613836;39;20052;-63
2022/12/12 10:44:04;;;;;;;20.75;10.57;;;;;;;3.11;59.88;101033.94;3605920;39;20054;-64
2022/12/12 10:46:51;;;;;;;19.95;9.88;;;;;;;3.18;59.45;101027.56;3606215;39;20096;-64
2022/12/12 10:49:22;;;;;;;20.65;10.52;;;;;;;3.32;58.79;101037.78;3611064;39;20622;-64
2022/12/12 10:51:50;;;;;;;19.48;10.63;;;;;;;3.50;58.47;101016.00;3616415;39;20127;-64
2022/12/12 10:54:22;;;;;;;19.30;10.13;;;;;;;3.72;58.35;101024.19;3614650;39;20099;-64
2022/12/12 10:57:19;;;;;;;18.73;9.93;;;;;;;3.98;56.77;101025.19;3607437;39;20059;-63
2022/12/12 10:59:57;;;;;;;18.38;9.95;;;;;;;4.14;56.05;101034.41;3606118;39;20463;-63
2022/12/12 11:02:41;;;;;;;20.88;9.55;;;;;;;4.29;55.71;101028.59;3605830;39;20043;-64
2022/12/12 11:05:30;;;;;;;19.20;10.32;;;;;;;4.19;55.52;100989.91;3609854;39;20051;-64
2022/12/12 11:08:16;;;;;;;20.65;11.07;;;;;;;4.59;55.53;101020.50;3613722;39;20084;-65
2022/12/12 11:10:42;;;;;;;21.50;10.63;;;;;;;4.73;54.29;101004.06;3606798;39;20047;-64
2022/12/12 11:13:07;;;;;;;22.05;11.02;;;;;;;4.99;53.59;101027.13;3604595;39;20128;-63
2022/12/12 11:15:45;;;;;;;32.10;15.85;;;;;;;5.13;53.04;101022.16;3609006;39;20378;-64
2022/12/12 11:18:18;;;;;;;21.98;10.63;;;;;;;5.24;53.25;101008.47;3606440;39;20063;-63
2022/12/12 11:20:56;;;;;;;20.63;10.43;;;;;;;5.43;52.94;101013.97;3609491;39;20063;-64
2022/12/12 11:23:28;;;;;;;22.45;10.95;;;;;;;5.61;52.16;101007.94;3605514;39;20094;-64
2022/12/12 11:26:16;;;;;;;20.13;10.77;;;;;;;5.82;51.72;101004.44;3608009;39;20412;-64
2022/12/12 11:28:59;;;;;;;19.25;10.57;;;;;;;5.94;51.28;101012.94;3606541;39;20047;-63
2022/12/12 11:31:32;;;;;;;18.67;10.43;;;;;;;6.00;51.03;101010.88;3608446;39;20054;-63
2022/12/12 11:34:05;;;;;;;18.88;10.10;;;;;;;6.03;50.55;101009.91;3607889;39;20050;-64
2022/12/12 11:36:37;;;;;;;18.42;9.35;;;;;;;6.14;49.98;101017.47;3605983;39;20063;-63
2022/12/12 11:39:15;;;;;;;19.90;9.35;;;;;;;6.21;48.76;101006.47;3607283;39;20055;-64
2022/12/12 11:42:29;;;;;;;17.92;9.43;;;;;;;6.44;48.57;101007.34;3606556;39;20136;-64
2022/12/12 11:45:20;;;;;;;15.75;9.23;;;;;;;6.57;48.67;100991.66;3543510;40;20071;-63
2022/12/12 11:47:47;;;;;;;18.30;9.27;;;;;;;6.71;48.44;101007.94;3613631;39;20078;-64
2022/12/12 11:50:22;;;;;;;17.63;9.82;;;;;;;6.82;47.55;101004.81;3611319;39;20047;-63
2022/12/12 11:52:55;;;;;;;18.33;9.90;;;;;;;6.91;47.63;101004.41;3607093;39;20059;-63
2022/12/12 11:55:57;;;;;;;16.90;8.98;;;;;;;6.95;46.98;100984.66;3606367;39;20373;-64
2022/12/12 11:58:36;;;;;;;18.27;9.40;;;;;;;7.08;45.61;100991.19;3609494;39;20081;-63
2022/12/12 12:01:50;;;;;;;15.75;8.95;;;;;;;7.27;45.85;100987.69;3606101;39;20131;-63